Stations météo

réclame
Mon MeteoGroup
Dourbes, Belgique (6455): Température de l'air & dewpoint: 20.05.2018 23:00:00 - 26.05.2018 23:00:00 (CEST)Dourbes, Belgique (6455): Vitesse du vent & gusts: 20.05.2018 23:00:00 - 26.05.2018 23:00:00 (CEST)Dourbes, Belgique (6455): Direction du vent: 20.05.2018 23:00:00 - 26.05.2018 23:00:00 (CEST)Dourbes, Belgique (6455): reduced air pressure: 20.05.2018 23:00:00 - 26.05.2018 23:00:00 (CEST)Dourbes, Belgique (6455): Ensoleillement: 20.05.2018 23:00:00 - 26.05.2018 23:00:00 (CEST)Dourbes, Belgique (6455): Quantités de précipitations: 20.05.2018 23:00:00 - 26.05.2018 23:00:00 (CEST)
Date & Time tt [°C] td [°C] ff [km/h] ff [knt] fx [km/h] fx [knt] dd ppp [hPa] sd [min] rr [mm]
26.05.2018 23:00:00 22,0 14,7 6 4 13 7 E 1016,9 0 0,0
26.05.2018 22:00:00 23,0 14,1 6 3 10 5 E 1016,4 0 0,0
26.05.2018 21:00:00 24,7 13,9 6 3 17 9 ESE 1016,0 3 0,0
26.05.2018 20:00:00 26,0 13,9 11 6 24 13 E 1015,7 47 0,0
26.05.2018 19:00:00 27,4 13,7 11 6 22 12 SSE 1015,9 60 0,0
26.05.2018 18:00:00 27,9 13,5 9 5 26 14 SE 1016,0 60 0,0
26.05.2018 17:00:00 27,9 14,6 8 4 20 11 ESE 1016,1 60 0,0
26.05.2018 16:00:00 27,5 15,3 8 5 24 13 SE 1016,4 48 0,0
26.05.2018 15:00:00 27,2 15,1 10 5 26 14 ESE 1016,7 53 0,0
26.05.2018 14:00:00 26,8 15,0 6 4 22 12 ESE 1017,1 51 0,0
26.05.2018 13:00:00 26,2 17,4 9 5 21 11 E 1017,0 60 0,0
26.05.2018 12:00:00 24,6 17,9 6 3 16 9 NE 1017,0 60 0,0
26.05.2018 11:00:00 22,9 17,9 7 4 16 9 NE 1017,1 60 0,0
26.05.2018 10:00:00 21,0 16,9 6 3 14 8 E 1017,2 60 0,0
26.05.2018 09:00:00 18,7 16,1 4 2 10 5 ENE 1017,6 60 0,0
26.05.2018 08:00:00 14,6 14,6 4 2 14 8 NNE 1017,9 20 0,0
26.05.2018 07:00:00 13,6 13,6 4 2 8 4 SSE 1018,0 0 0,0
26.05.2018 06:00:00 13,2 13,0 4 2 5 3 WSW 1017,6 0 0,0
26.05.2018 05:00:00 13,8 13,5 4 2 8 4 W 1017,5 0 0,0
26.05.2018 04:00:00 14,8 14,5 4 2 6 3 NE 1017,2 0 0,0
26.05.2018 03:00:00 14,8 14,5 4 2 6 4 NE 1017,3 0 0,0
26.05.2018 02:00:00 14,8 14,3 4 2 7 4 E 1017,5 0 0,0
26.05.2018 01:00:00 15,5 14,1 0 0 6 3 N 1017,6 0 0,0
26.05.2018 00:00:00 16,9 14,7 4 2 7 4 E 1017,2 0 0,0
25.05.2018 23:00:00 18,4 14,8 4 2 9 5 E 1017,1 0 0,0
25.05.2018 22:00:00 19,7 14,7 5 3 12 7 NNE 1016,6 0 0,0
25.05.2018 21:00:00 21,4 15,0 4 2 7 4 NNE 1016,1 12 0,0
25.05.2018 20:00:00 22,3 15,8 4 2 7 4 N 1015,7 60 0,0
25.05.2018 19:00:00 22,9 15,9 4 2 8 4 N 1015,8 43 0,0
25.05.2018 18:00:00 23,4 14,7 4 2 8 5 N 1015,9 27 0,0
25.05.2018 17:00:00 23,4 15,4 0 0 6 3 N 1016,4 1 0,0
25.05.2018 16:00:00 24,0 13,9 4 2 9 5 NNE 1016,4 40 0,0
25.05.2018 15:00:00 23,4 14,9 4 2 13 7 ENE 1016,3 32 0,0
25.05.2018 14:00:00 23,7 14,2 7 4 14 7 SSE 1016,4 53 0,0
25.05.2018 13:00:00 22,7 15,5 5 3 12 6 WSW 1016,6 50 0,0
25.05.2018 12:00:00 22,1 16,6 4 2 8 4 WSW 1016,8 60 0,0
25.05.2018 11:00:00 20,6 17,6 4 2 7 4 WNW 1016,8 60 0,0
25.05.2018 10:00:00 16,9 16,9 0 0 5 3 N 1017,2 60 0,0
25.05.2018 09:00:00 14,0 14,0 0 0 4 2 N 1017,4 59 0,0
25.05.2018 08:00:00 12,4 12,4 4 2 9 5 SE 1017,3 55 0,0
25.05.2018 07:00:00 11,2 11,2 5 3 7 4 ENE 1017,1 5 0,0
25.05.2018 06:00:00 10,9 10,9 4 2 8 5 ENE 1016,9 0 0,0
25.05.2018 05:00:00 11,4 11,4 6 3 8 4 ENE 1016,6 0 0,0
25.05.2018 04:00:00 11,9 11,9 0 0 7 4 N 1016,4 0 0,0
25.05.2018 03:00:00 13,2 13,2 4 2 6 4 E 1016,4 0 0,0
25.05.2018 02:00:00 13,4 13,4 4 2 6 4 E 1016,5 0 0,0
25.05.2018 01:00:00 13,8 13,8 4 2 6 4 W 1016,9 0 0,0
25.05.2018 00:00:00 14,7 14,5 4 2 8 4 WSW 1016,8 0 0,0
24.05.2018 23:00:00 15,7 15,3 4 2 8 5 ESE 1016,4 0 0,0
24.05.2018 22:00:00 16,6 15,8 4 2 9 5 ESE 1016,1 0 0,0
24.05.2018 21:00:00 17,9 16,6 4 2 10 5 NE 1015,4 19 0,0
24.05.2018 20:00:00 18,3 16,7 4 2 9 5 N 1015,3 42 0,0
24.05.2018 19:00:00 18,0 16,8 4 2 8 5 ESE 1014,9 15 0,0
24.05.2018 18:00:00 17,3 16,5 4 2 9 5 SE 1015,6 0 4,7
24.05.2018 17:00:00 17,7 15,4 5 3 14 8 WSW 1015,5 5 0,0
24.05.2018 16:00:00 20,8 16,4 5 3 22 12 NW 1015,5 23 0,0
24.05.2018 15:00:00 21,0 16,7 4 2 8 4 NW 1015,5 7 0,0
24.05.2018 14:00:00 20,8 16,7 4 2 12 7 E 1016,0 10 0,0
24.05.2018 13:00:00 20,0 15,8 4 2 12 7 S 1016,6 26 0,0
24.05.2018 12:00:00 19,3 16,3 4 2 8 5 WSW 1016,9 44 0,0
24.05.2018 11:00:00 18,0 16,1 4 2 9 5 ESE 1016,9 38 0,0
24.05.2018 10:00:00 16,0 15,4 4 2 6 3 E 1017,5 0 0,0
24.05.2018 09:00:00 14,9 14,8 4 2 8 4 E 1017,8 3 0,0
24.05.2018 08:00:00 14,3 14,3 4 2 9 5 ENE 1017,8 17 0,0
24.05.2018 07:00:00 13,4 13,4 4 2 6 3 NNE 1017,9 0 0,0
24.05.2018 06:00:00 13,1 13,1 0 0 9 5 N 1018,1 0 0,0
24.05.2018 05:00:00 13,5 13,5 4 2 7 4 NNE 1018,3 0 0,0
24.05.2018 04:00:00 13,6 13,6 4 2 8 5 ENE 1018,3 0 0,0
24.05.2018 03:00:00 13,7 13,7 4 2 9 5 E 1018,3 0 0,0
24.05.2018 02:00:00 13,8 13,7 4 2 8 5 E 1018,4 0 0,2
24.05.2018 01:00:00 14,0 13,7 4 2 12 6 NE 1018,9 0 0,7
24.05.2018 00:00:00 14,6 13,8 6 4 31 17 E 1019,3 0 1,2
23.05.2018 23:00:00 15,1 14,8 13 7 28 15 E 1019,7 0 0,9
23.05.2018 22:00:00 15,3 15,0 6 3 11 6 NNE 1018,8 0 4,0
23.05.2018 21:00:00 15,7 14,9 4 2 11 6 SSE 1018,4 - -
23.05.2018 20:00:00 16,2 14,9 7 4 19 10 E 1017,9 0 0,1
23.05.2018 19:00:00 17,5 16,7 4 2 5 3 SSE 1017,4 0 0,3
23.05.2018 18:00:00 18,1 16,3 0 0 15 8 N 1017,8 0 0,2
23.05.2018 17:00:00 19,6 14,7 6 3 19 10 NE 1017,3 20 0,0
23.05.2018 16:00:00 20,6 15,6 8 4 24 13 NE 1017,1 48 0,0
23.05.2018 15:00:00 20,6 15,3 9 5 22 12 NNE 1017,3 46 0,0
23.05.2018 14:00:00 20,2 15,0 7 4 16 9 ENE 1017,6 37 0,0
23.05.2018 13:00:00 18,4 14,4 8 4 18 10 NE 1018,1 27 0,0
23.05.2018 12:00:00 17,0 15,1 5 3 13 7 NNE 1018,0 0 0,0
23.05.2018 11:00:00 15,7 14,6 5 3 11 6 N 1018,0 0 0,0
23.05.2018 10:00:00 14,5 14,3 4 2 9 5 NNE 1017,9 0 0,0
23.05.2018 09:00:00 13,9 13,9 4 2 10 5 N 1017,6 0 0,0
23.05.2018 08:00:00 13,4 13,4 4 2 9 5 N 1017,2 0 0,0
23.05.2018 07:00:00 12,3 12,3 0 0 3 2 N 1016,7 0 0,0
23.05.2018 06:00:00 11,7 11,7 4 2 5 3 SSE 1016,4 0 0,0
23.05.2018 05:00:00 11,3 11,3 4 2 6 3 WSW 1016,1 0 0,0
23.05.2018 04:00:00 11,9 11,9 4 2 4 2 NNE 1015,8 0 0,0
23.05.2018 03:00:00 12,0 11,9 0 0 4 2 N 1015,5 0 0,0
23.05.2018 02:00:00 12,6 12,4 4 2 5 3 N 1015,5 0 0,0
23.05.2018 01:00:00 13,3 12,9 4 2 12 7 NE 1015,4 0 0,0
23.05.2018 00:00:00 13,9 13,7 7 4 12 7 NNE 1015,2 0 0,2
22.05.2018 23:00:00 14,2 13,7 4 2 14 8 N 1014,4 0 0,4
22.05.2018 22:00:00 14,5 14,0 6 3 11 6 SSE 1013,8 0 0,1
22.05.2018 21:00:00 14,7 13,8 4 2 29 16 SW 1014,1 0 0,4
22.05.2018 20:00:00 16,5 12,7 7 4 28 15 NW 1013,2 0 0,0
22.05.2018 19:00:00 20,6 12,5 9 5 26 14 NNE 1012,3 28 0,0
22.05.2018 18:00:00 21,2 12,2 4 2 9 5 N 1011,3 18 0,0
22.05.2018 17:00:00 22,2 12,2 5 3 11 6 W 1011,3 60 0,0
22.05.2018 16:00:00 22,1 14,0 6 3 14 8 W 1011,5 60 0,0
22.05.2018 15:00:00 21,0 14,8 5 3 19 10 WSW 1011,6 6 0,0
22.05.2018 14:00:00 21,1 14,3 11 6 17 9 WSW 1011,9 25 0,0
22.05.2018 13:00:00 21,3 13,8 4 2 11 6 NNW 1011,7 44 0,0
22.05.2018 12:00:00 20,2 14,4 4 2 7 4 WNW 1011,9 14 0,0
22.05.2018 11:00:00 19,2 14,5 4 2 6 3 W 1011,9 59 0,0
22.05.2018 10:00:00 16,8 13,8 4 2 4 2 SSE 1012,1 60 0,0
22.05.2018 09:00:00 13,2 12,2 4 2 6 3 S 1012,2 60 0,0
22.05.2018 08:00:00 10,7 10,6 0 0 4 2 N 1012,1 20 0,0
22.05.2018 07:00:00 9,6 9,5 4 2 5 3 S 1012,0 13 0,0
22.05.2018 06:00:00 9,9 9,8 4 2 6 3 E 1011,6 0 0,0
22.05.2018 05:00:00 9,8 9,7 5 3 6 3 E 1011,5 0 0,0
22.05.2018 04:00:00 10,0 9,7 4 2 5 3 NNE 1011,5 0 0,0
22.05.2018 03:00:00 10,7 10,3 0 0 4 2 N 1011,5 0 0,0
22.05.2018 02:00:00 11,3 10,7 4 2 6 4 SE 1011,6 0 0,0
22.05.2018 01:00:00 11,9 11,0 0 0 4 2 N 1011,9 0 0,0
22.05.2018 00:00:00 12,9 11,3 4 2 5 3 SSW 1011,8 0 0,0
21.05.2018 23:00:00 14,3 11,3 4 2 13 7 SSW 1011,7 0 0,0
21.05.2018 22:00:00 16,5 10,7 4 2 9 5 S 1011,3 0 0,0
21.05.2018 21:00:00 18,2 11,3 5 3 18 10 NW 1011,0 0 0,0
21.05.2018 20:00:00 21,3 11,0 4 2 9 5 NE 1010,3 31 0,0
21.05.2018 19:00:00 21,4 12,1 4 2 16 9 SW 1010,2 22 0,0
21.05.2018 18:00:00 21,3 9,9 13 7 22 12 S 1010,4 37 0,0
21.05.2018 17:00:00 21,7 10,6 5 3 13 7 SSE 1010,6 15 0,0
21.05.2018 16:00:00 21,7 11,8 4 2 14 7 SE 1011,1 14 0,0
21.05.2018 15:00:00 21,5 12,6 5 3 21 11 E 1011,5 40 0,0
21.05.2018 14:00:00 19,9 12,0 7 4 16 9 NE 1011,9 20 0,0
21.05.2018 13:00:00 20,5 14,1 7 4 16 9 NNE 1012,3 60 0,0
21.05.2018 12:00:00 19,3 13,4 6 3 18 10 E 1012,7 60 0,0
21.05.2018 11:00:00 17,6 12,7 8 4 17 9 ENE 1013,3 60 0,0
21.05.2018 10:00:00 15,9 12,0 8 4 19 10 ENE 1013,9 51 0,0
21.05.2018 09:00:00 14,2 11,9 6 4 18 10 ENE 1014,4 57 0,0
21.05.2018 08:00:00 12,3 11,0 4 2 16 9 ENE 1014,9 44 0,0
21.05.2018 07:00:00 12,0 11,3 6 3 16 9 ENE 1015,0 13 0,0
21.05.2018 06:00:00 12,0 10,9 6 3 19 10 NE 1015,3 0 0,0
21.05.2018 05:00:00 12,6 11,2 9 5 28 15 ENE 1015,4 0 0,1
21.05.2018 04:00:00 11,9 11,3 10 5 22 12 NNE 1015,8 0 0,1
21.05.2018 03:00:00 11,6 10,8 6 3 21 11 ENE 1016,6 0 0,1
21.05.2018 02:00:00 12,3 11,3 11 6 28 15 NE 1017,3 0 0,5
21.05.2018 01:00:00 13,2 10,9 12 7 27 14 ENE 1017,9 0 0,2
21.05.2018 00:00:00 12,9 10,5 9 5 19 10 ENE 1017,8 0 0,0
20.05.2018 23:00:00 12,4 10,3 6 4 14 8 NE 1017,8 0 0,0

tt = Température de l'air
td = dewpoint
ff = Vitesse du vent
fx = gusts
dd = Direction du vent
ppp = reduced air pressure
sd = Ensoleillement
rr = Quantités de précipitations

stations d'obs. à proximité